createdAt,value
2018-11-06T00:00:00.903Z,37.20
2018-11-06T00:02:29.229Z,38.37
2018-11-06T00:05:02.672Z,42.53
2018-11-06T00:07:30.990Z,43.60
2018-11-06T00:09:59.402Z,40.83
2018-11-06T00:12:28.052Z,41.27
2018-11-06T00:14:58.574Z,40.00
2018-11-06T00:17:27.190Z,41.23
2018-11-06T00:19:56.303Z,38.90
2018-11-06T00:22:24.572Z,42.30
2018-11-06T00:24:53.072Z,34.20
2018-11-06T00:27:21.343Z,38.07
2018-11-06T00:29:49.679Z,112.80
2018-11-06T00:32:17.965Z,50.70
2018-11-06T00:34:46.293Z,37.97
2018-11-06T00:37:14.574Z,62.33
2018-11-06T00:39:43.486Z,74.17
2018-11-06T00:42:12.038Z,39.40
2018-11-06T00:44:40.416Z,39.90
2018-11-06T00:47:08.740Z,34.97
2018-11-06T00:49:37.166Z,38.17
2018-11-06T00:52:05.916Z,38.83
2018-11-06T00:54:34.318Z,39.47
2018-11-06T00:57:02.644Z,36.17
2018-11-06T00:59:31.027Z,38.37
2018-11-06T01:01:59.364Z,41.33
2018-11-06T01:04:27.596Z,38.03
2018-11-06T01:06:55.889Z,39.93
2018-11-06T01:09:24.247Z,38.80
2018-11-06T01:11:52.598Z,39.43
2018-11-06T01:14:20.878Z,35.37
2018-11-06T01:16:49.162Z,36.50
2018-11-06T01:19:17.555Z,35.37
2018-11-06T01:21:45.945Z,35.97
2018-11-06T01:24:14.236Z,42.47
2018-11-06T01:26:42.554Z,36.93
2018-11-06T01:29:10.772Z,37.30
2018-11-06T01:31:39.048Z,37.07
2018-11-06T01:34:07.310Z,38.77
2018-11-06T01:36:35.720Z,34.03
2018-11-06T01:39:05.336Z,39.03
2018-11-06T01:41:33.563Z,34.90
2018-11-06T01:44:01.824Z,32.23
2018-11-06T01:46:30.212Z,31.80
2018-11-06T01:48:58.590Z,31.77
2018-11-06T01:51:26.852Z,36.20
2018-11-06T01:53:55.146Z,31.13
2018-11-06T01:56:23.711Z,30.97
2018-11-06T01:58:52.003Z,27.57
2018-11-06T02:01:20.360Z,45.13
2018-11-06T02:03:48.713Z,41.23
2018-11-06T02:06:16.964Z,34.57
2018-11-06T02:08:45.231Z,187.50
2018-11-06T02:11:13.510Z,85.23
2018-11-06T02:13:41.762Z,90.10
2018-11-06T02:16:10.009Z,64.57
2018-11-06T02:18:38.314Z,34.37
2018-11-06T02:21:06.769Z,38.07
2018-11-06T02:23:35.012Z,31.03
2018-11-06T02:26:03.428Z,26.27
2018-11-06T02:28:31.745Z,31.33
2018-11-06T02:31:00.034Z,26.43
2018-11-06T02:33:28.388Z,23.20
2018-11-06T02:35:56.708Z,23.47
2018-11-06T02:38:25.131Z,27.03
2018-11-06T02:40:53.433Z,24.47
2018-11-06T02:43:21.707Z,27.47
2018-11-06T02:45:49.964Z,24.47
2018-11-06T02:48:18.291Z,29.47
2018-11-06T02:50:46.598Z,25.30
2018-11-06T02:53:15.001Z,27.50
2018-11-06T02:55:43.318Z,25.00
2018-11-06T02:58:14.507Z,23.37
2018-11-06T03:00:42.956Z,25.50
2018-11-06T03:03:11.366Z,25.50
2018-11-06T03:05:39.814Z,24.77
2018-11-06T03:08:08.122Z,22.00
2018-11-06T03:10:36.417Z,22.60
2018-11-06T03:13:05.066Z,23.80
2018-11-06T03:18:23.918Z,21.00
2018-11-06T03:20:52.218Z,22.10
2018-11-06T03:23:20.465Z,29.37
2018-11-06T03:25:48.764Z,53.60
2018-11-06T03:28:17.179Z,25.97
2018-11-06T03:30:45.513Z,45.97
2018-11-06T03:33:13.888Z,22.90
2018-11-06T03:35:42.219Z,16.00
2018-11-06T03:38:10.527Z,17.73
2018-11-06T03:40:38.809Z,18.20
2018-11-06T03:43:07.280Z,18.97
2018-11-06T03:45:35.591Z,24.47
2018-11-06T03:48:03.982Z,21.97
2018-11-06T03:50:32.302Z,21.67
2018-11-06T03:53:00.556Z,19.23
2018-11-06T03:55:28.857Z,49.07
2018-11-06T03:57:57.096Z,26.30
2018-11-06T04:00:25.352Z,47.33
2018-11-06T04:02:53.676Z,45.87
2018-11-06T04:05:21.960Z,49.97
2018-11-06T04:07:50.287Z,27.73
2018-11-06T04:10:18.686Z,21.63
2018-11-06T04:12:46.943Z,20.93
2018-11-06T04:15:15.239Z,18.40
2018-11-06T04:17:44.412Z,32.83
2018-11-06T04:20:12.730Z,36.53
2018-11-06T04:22:41.903Z,26.20
2018-11-06T04:25:10.382Z,25.83
2018-11-06T04:27:38.949Z,24.07
2018-11-06T04:30:09.224Z,37.57
2018-11-06T04:32:37.521Z,78.00
2018-11-06T04:35:06.397Z,64.80
2018-11-06T04:37:34.764Z,122.60
2018-11-06T04:40:03.269Z,36.53
2018-11-06T04:42:31.554Z,23.10
2018-11-06T04:44:59.899Z,23.00
2018-11-06T04:47:28.334Z,25.53
2018-11-06T04:49:56.638Z,23.17
2018-11-06T04:52:24.938Z,20.13
2018-11-06T04:54:53.271Z,25.57
2018-11-06T04:57:21.556Z,24.27
2018-11-06T04:59:49.926Z,24.13
2018-11-06T05:02:18.263Z,25.20
2018-11-06T05:04:46.468Z,34.13
2018-11-06T05:07:14.776Z,28.20
2018-11-06T05:09:43.120Z,22.47
2018-11-06T05:12:11.434Z,23.53
2018-11-06T05:14:39.692Z,22.77
2018-11-06T05:17:08.017Z,22.00
2018-11-06T05:19:36.328Z,24.70
2018-11-06T05:22:05.115Z,22.33
2018-11-06T05:24:33.495Z,20.70
2018-11-06T05:27:02.007Z,22.23
2018-11-06T05:29:30.467Z,25.63
2018-11-06T05:31:58.708Z,23.57
2018-11-06T05:34:29.062Z,21.80
2018-11-06T05:36:57.496Z,27.53
2018-11-06T05:39:25.898Z,19.70
2018-11-06T05:41:54.219Z,23.13
2018-11-06T05:44:22.627Z,22.07
2018-11-06T05:46:50.908Z,20.77
2018-11-06T05:49:19.326Z,19.13
2018-11-06T05:51:47.578Z,21.90
2018-11-06T05:54:15.986Z,19.17
2018-11-06T05:56:44.312Z,22.37
2018-11-06T05:59:12.692Z,21.83
2018-11-06T06:01:40.966Z,26.83
2018-11-06T06:04:10.005Z,24.03
2018-11-06T06:06:38.300Z,26.13
2018-11-06T06:09:07.472Z,29.27
2018-11-06T06:11:35.955Z,24.83
2018-11-06T06:14:04.390Z,23.10
2018-11-06T06:16:32.750Z,24.63
2018-11-06T06:19:00.997Z,24.53
2018-11-06T06:21:29.415Z,23.53
2018-11-06T06:23:57.704Z,23.70
2018-11-06T06:26:26.168Z,20.27
2018-11-06T06:28:54.554Z,24.33
2018-11-06T06:31:22.889Z,26.07
2018-11-06T06:33:51.759Z,22.43
2018-11-06T06:36:20.252Z,22.60
2018-11-06T06:38:48.623Z,22.80
2018-11-06T06:41:16.860Z,25.17
2018-11-06T06:43:45.255Z,23.87
2018-11-06T06:46:13.548Z,26.13
2018-11-06T06:48:42.002Z,27.93
2018-11-06T06:51:10.402Z,23.10
2018-11-06T06:53:38.744Z,20.87
2018-11-06T06:56:07.131Z,21.93
2018-11-06T06:58:35.432Z,19.87
2018-11-06T07:01:03.777Z,21.73
2018-11-06T07:03:32.278Z,19.57
2018-11-06T07:06:00.553Z,19.13
2018-11-06T07:08:28.888Z,20.70
2018-11-06T07:10:57.281Z,20.03
2018-11-06T07:13:25.569Z,21.60
2018-11-06T07:15:53.854Z,26.63
2018-11-06T07:18:22.197Z,23.47
2018-11-06T07:20:50.428Z,22.30
2018-11-06T07:23:18.722Z,24.27
2018-11-06T07:25:46.998Z,21.80
2018-11-06T07:28:15.344Z,19.20
2018-11-06T07:30:43.651Z,25.53
2018-11-06T07:33:11.998Z,21.37
2018-11-06T07:35:40.558Z,19.90
2018-11-06T07:38:08.678Z,17.83
2018-11-06T07:40:37.115Z,21.97
2018-11-06T07:43:05.430Z,20.20
2018-11-06T07:45:33.728Z,18.77
2018-11-06T07:48:02.006Z,19.73
2018-11-06T07:50:30.424Z,17.50
2018-11-06T07:52:58.765Z,18.47
2018-11-06T07:55:27.080Z,20.03
2018-11-06T07:57:55.368Z,19.87
2018-11-06T08:00:25.076Z,17.23
2018-11-06T08:02:53.427Z,18.10
2018-11-06T08:05:22.762Z,20.57
2018-11-06T08:07:51.672Z,25.93
2018-11-06T08:10:20.053Z,25.87
2018-11-06T08:12:50.682Z,20.87
2018-11-06T08:15:18.959Z,17.03
2018-11-06T08:17:47.417Z,18.60
2018-11-06T08:20:15.739Z,20.03
2018-11-06T08:22:44.466Z,21.10
2018-11-06T08:25:13.901Z,21.57
2018-11-06T08:27:42.905Z,14.87
2018-11-06T08:30:12.244Z,15.47
2018-11-06T08:32:40.980Z,14.27
2018-11-06T08:35:11.087Z,17.37
2018-11-06T08:37:39.454Z,16.07
2018-11-06T08:40:08.483Z,17.80
2018-11-06T08:42:36.974Z,14.03
2018-11-06T08:45:06.705Z,15.20
2018-11-06T08:47:34.983Z,12.77
2018-11-06T08:50:03.298Z,16.77
2018-11-06T08:52:31.700Z,14.00
2018-11-06T08:55:00.256Z,13.43
2018-11-06T08:57:28.568Z,15.40
2018-11-06T08:59:56.976Z,16.07
2018-11-06T09:02:25.460Z,16.20
2018-11-06T09:04:53.673Z,16.23
2018-11-06T09:07:22.075Z,15.97
2018-11-06T09:09:50.506Z,13.87
2018-11-06T09:12:19.268Z,15.93
2018-11-06T09:14:47.716Z,14.80
2018-11-06T09:17:17.113Z,17.07
2018-11-06T09:19:45.415Z,18.80
2018-11-06T09:22:13.736Z,15.80
2018-11-06T09:24:42.173Z,19.43
2018-11-06T09:27:10.451Z,19.13
2018-11-06T09:29:38.771Z,21.73
2018-11-06T09:32:07.560Z,30.90
2018-11-06T09:34:35.840Z,36.87
2018-11-06T09:37:04.311Z,33.63
2018-11-06T09:39:32.600Z,18.87
2018-11-06T09:42:01.033Z,17.87
2018-11-06T09:44:29.361Z,18.07
2018-11-06T09:46:57.746Z,21.30
2018-11-06T09:49:26.045Z,22.07
2018-11-06T09:51:54.452Z,17.50
2018-11-06T09:54:22.670Z,19.67
2018-11-06T09:56:51.046Z,15.97
2018-11-06T09:59:19.349Z,18.07
2018-11-06T10:01:47.883Z,15.70
2018-11-06T10:04:16.373Z,19.30
2018-11-06T10:10:09.388Z,20.60
2018-11-06T10:12:38.072Z,21.77
2018-11-06T10:15:07.984Z,23.03
2018-11-06T14:34:05.624Z,11.33
2018-11-06T14:36:33.988Z,17.90
2018-11-06T14:39:02.229Z,20.17
2018-11-06T14:41:30.461Z,21.67
2018-11-06T14:43:58.741Z,17.33
2018-11-06T14:46:27.096Z,16.57
2018-11-06T14:48:55.532Z,15.37
2018-11-06T14:51:23.754Z,15.83
2018-11-06T14:53:52.087Z,17.70
2018-11-06T14:56:20.352Z,18.17
2018-11-06T14:58:48.568Z,19.33
2018-11-06T15:01:16.819Z,14.00
2018-11-06T15:03:45.079Z,13.17
2018-11-06T15:06:13.413Z,12.73
2018-11-06T15:08:41.830Z,18.37
2018-11-06T15:11:10.104Z,11.13
2018-11-06T15:13:38.355Z,10.77
2018-11-06T15:16:06.691Z,12.90
2018-11-06T15:18:34.981Z,13.40
2018-11-06T15:21:04.301Z,14.17
2018-11-06T15:23:32.561Z,17.30
2018-11-06T15:26:00.955Z,11.07
2018-11-06T15:28:29.305Z,10.35
2018-11-06T15:33:49.040Z,24.23
2018-11-06T15:36:23.962Z,25.33
2018-11-06T15:38:53.370Z,19.87
2018-11-06T15:41:21.717Z,18.27
2018-11-06T15:43:49.997Z,15.00
2018-11-06T15:48:50.323Z,15.27
2018-11-06T15:51:18.692Z,14.27
2018-11-06T15:53:51.813Z,12.90
2018-11-06T15:56:20.146Z,17.20
2018-11-06T15:58:48.458Z,15.97
2018-11-06T16:01:16.939Z,16.47
2018-11-06T16:03:45.297Z,15.67
2018-11-06T16:06:15.290Z,11.10
2018-11-06T16:08:43.597Z,12.00
2018-11-06T16:16:07.308Z,11.40
2018-11-06T16:18:41.443Z,12.78
2018-11-06T16:21:09.756Z,18.48
2018-11-06T16:23:38.046Z,10.03
2018-11-06T16:26:11.812Z,14.18
2018-11-06T16:28:40.138Z,14.20
2018-11-06T16:31:10.492Z,10.72
2018-11-06T16:33:38.888Z,11.45
2018-11-06T16:36:10.112Z,12.78
2018-11-06T16:38:40.555Z,16.05
2018-11-06T16:41:09.030Z,9.15
2018-11-06T16:43:47.536Z,12.43
2018-11-06T16:46:16.703Z,14.83
2018-11-06T16:48:45.081Z,12.88
2018-11-06T16:51:13.393Z,12.55
2018-11-06T16:53:41.844Z,10.32
2018-11-06T16:56:10.171Z,10.85
2018-11-06T16:58:40.586Z,11.45
2018-11-06T17:01:11.150Z,14.58
2018-11-06T17:03:39.344Z,12.28
2018-11-06T17:06:12.333Z,16.23
2018-11-06T17:08:40.683Z,10.43
2018-11-06T17:11:12.350Z,16.82
2018-11-06T17:13:40.688Z,13.98
2018-11-06T17:16:09.078Z,21.30
2018-11-06T17:18:44.061Z,16.20
2018-11-06T17:21:12.484Z,17.37
2018-11-06T17:23:40.962Z,14.03
2018-11-06T17:26:19.265Z,14.10
2018-11-06T17:28:47.611Z,19.48
2018-11-06T17:31:16.012Z,17.52
2018-11-06T17:33:44.634Z,13.55
2018-11-06T17:36:12.985Z,13.57
2018-11-06T17:38:41.395Z,16.90
2018-11-06T17:41:09.781Z,22.07
2018-11-06T17:43:38.421Z,12.83
2018-11-06T17:46:06.858Z,11.70
2018-11-06T17:48:35.612Z,21.83
2018-11-06T17:51:03.940Z,14.47
2018-11-06T17:53:32.300Z,17.23
2018-11-06T17:56:02.708Z,15.10
2018-11-06T17:58:31.102Z,15.53
2018-11-06T18:00:59.861Z,20.13
2018-11-06T18:03:29.287Z,23.00
2018-11-06T18:05:58.650Z,20.67
2018-11-06T18:08:37.919Z,21.03
2018-11-06T18:11:06.364Z,26.07
2018-11-06T18:13:34.796Z,19.53
2018-11-06T18:16:03.231Z,23.97
2018-11-06T18:18:32.826Z,24.87
2018-11-06T18:21:02.242Z,26.70
2018-11-06T18:23:37.637Z,32.77
2018-11-06T18:26:06.082Z,30.43
2018-11-06T18:28:40.815Z,20.57
2018-11-06T18:31:21.648Z,26.00
2018-11-06T18:33:50.105Z,42.03
2018-11-06T18:36:19.471Z,40.57
2018-11-06T18:38:48.146Z,36.70
2018-11-06T18:41:31.724Z,34.47
2018-11-06T18:44:01.340Z,34.70
2018-11-06T18:46:29.819Z,36.13
2018-11-06T18:48:58.161Z,24.87
2018-11-06T18:51:27.543Z,38.77
2018-11-06T18:53:56.899Z,24.13
2018-11-06T18:56:25.197Z,38.67
2018-11-06T18:58:53.478Z,26.00
2018-11-06T19:01:21.923Z,24.07
2018-11-06T19:03:50.239Z,22.27
2018-11-06T19:06:18.589Z,30.47
2018-11-06T19:08:46.876Z,25.93
2018-11-06T19:11:15.894Z,22.83
2018-11-06T19:13:50.044Z,29.43
2018-11-06T19:16:18.425Z,24.60
2018-11-06T19:18:46.680Z,29.60
2018-11-06T19:21:15.032Z,27.63
2018-11-06T19:23:43.352Z,34.43
2018-11-06T19:26:11.607Z,36.70
2018-11-06T19:28:39.985Z,37.80
2018-11-06T19:31:08.403Z,24.67
2018-11-06T19:33:36.695Z,26.10
2018-11-06T19:36:05.198Z,30.33
2018-11-06T19:38:37.918Z,21.30
2018-11-06T19:41:06.461Z,24.50
2018-11-06T19:43:34.716Z,26.63
2018-11-06T19:46:03.025Z,34.13
2018-11-06T19:48:32.995Z,24.87
2018-11-06T19:51:01.430Z,26.37
2018-11-06T19:53:29.895Z,23.20
2018-11-06T19:56:02.709Z,31.07
2018-11-06T19:58:30.980Z,25.40
2018-11-06T20:00:59.430Z,29.20
2018-11-06T20:03:27.687Z,24.90
2018-11-06T20:05:56.068Z,21.30
2018-11-06T20:08:24.260Z,23.47
2018-11-06T20:10:52.607Z,27.20
2018-11-06T20:13:21.014Z,31.43
2018-11-06T20:15:49.393Z,35.23
2018-11-06T20:18:18.137Z,25.27
2018-11-06T20:20:46.581Z,27.47
2018-11-06T20:23:15.029Z,19.57
2018-11-06T20:25:46.713Z,22.17
2018-11-06T20:28:14.972Z,18.93
2018-11-06T20:30:43.347Z,20.63
2018-11-06T20:33:12.827Z,24.23
2018-11-06T20:35:41.191Z,18.43
2018-11-06T20:38:19.663Z,16.33
2018-11-06T20:40:48.033Z,13.70
2018-11-06T20:43:16.589Z,19.97
2018-11-06T20:45:48.326Z,13.60
2018-11-06T20:48:16.598Z,16.27
2018-11-06T20:50:44.892Z,18.37
2018-11-06T20:53:15.610Z,16.33
2018-11-06T20:55:44.428Z,13.90
2018-11-06T20:58:12.941Z,22.80
2018-11-06T21:00:43.065Z,20.50
2018-11-06T21:03:11.670Z,14.03
2018-11-06T21:05:42.169Z,21.20
2018-11-06T21:08:14.184Z,17.30
2018-11-06T21:10:42.632Z,12.40
2018-11-06T21:13:11.051Z,15.33
2018-11-06T21:15:39.177Z,11.43
2018-11-06T21:18:08.645Z,14.50
2018-11-06T21:20:37.124Z,12.93
2018-11-06T21:23:05.649Z,14.80
2018-11-06T21:25:34.097Z,11.03
2018-11-06T21:28:05.784Z,13.37
2018-11-06T21:30:34.125Z,18.80
2018-11-06T21:33:09.390Z,14.97
2018-11-06T21:35:37.836Z,11.97
2018-11-06T21:38:07.220Z,14.33
2018-11-06T21:40:35.556Z,13.90
2018-11-06T21:43:10.173Z,14.40
2018-11-06T21:45:40.635Z,12.43
2018-11-06T21:48:09.090Z,13.53
2018-11-06T21:50:42.665Z,10.17
2018-11-06T21:53:12.188Z,11.07
2018-11-06T21:55:41.921Z,10.93
2018-11-06T21:58:12.523Z,8.97
2018-11-06T22:00:41.131Z,11.97
2018-11-06T22:03:13.429Z,12.03
2018-11-06T22:05:42.186Z,10.27
2018-11-06T22:08:15.111Z,15.13
2018-11-06T22:10:49.304Z,12.43
2018-11-06T22:13:18.680Z,12.53
2018-11-06T22:15:47.024Z,12.13
2018-11-06T22:18:16.500Z,10.27
2018-11-06T22:20:52.599Z,12.53
2018-11-06T22:23:21.023Z,8.27
2018-11-06T22:25:49.315Z,12.57
2018-11-06T22:28:17.734Z,11.57
2018-11-06T22:30:46.195Z,10.70
2018-11-06T22:33:14.639Z,9.73
2018-11-06T22:35:42.959Z,9.30
2018-11-06T22:38:11.313Z,10.63
2018-11-06T22:40:39.698Z,11.60
2018-11-06T22:43:09.904Z,10.77
2018-11-06T22:45:38.514Z,10.30
2018-11-06T22:48:09.013Z,6.17
2018-11-06T22:50:37.449Z,7.83
2018-11-06T22:53:06.157Z,9.73
2018-11-06T22:55:35.482Z,10.83
2018-11-06T22:58:06.933Z,7.53
2018-11-06T23:00:44.581Z,5.33
2018-11-06T23:03:15.159Z,7.73
2018-11-06T23:05:43.590Z,10.57
2018-11-06T23:08:17.476Z,8.50
2018-11-06T23:10:47.563Z,7.07
2018-11-06T23:13:17.369Z,10.43
2018-11-06T23:15:45.700Z,8.93
2018-11-06T23:18:14.418Z,11.17
2018-11-06T23:20:42.725Z,8.40
2018-11-06T23:23:12.215Z,8.77
2018-11-06T23:25:40.511Z,9.07
2018-11-06T23:28:08.765Z,6.70
2018-11-06T23:30:37.089Z,9.93
2018-11-06T23:33:05.647Z,7.20
2018-11-06T23:35:34.038Z,5.00
2018-11-06T23:38:02.380Z,7.13
2018-11-06T23:40:30.696Z,7.33
2018-11-06T23:43:04.144Z,10.27
2018-11-06T23:45:32.445Z,10.43
2018-11-06T23:48:00.734Z,8.43
2018-11-06T23:50:29.021Z,9.43
2018-11-06T23:52:59.549Z,8.27
2018-11-06T23:55:27.892Z,7.63
2018-11-06T23:57:56.343Z,8.13
